sensor_id;sensor_type;location;lat;lon;timestamp;pressure;altitude;pressure_sealevel;temperature;humidity
68075;BME280;54864;52.002;5.468;2023-09-19T00:00:32;100534.00;;;16.63;86.68
68075;BME280;54864;52.002;5.468;2023-09-19T00:01:34;100543.00;;;16.73;86.65
68075;BME280;54864;52.002;5.468;2023-09-19T00:02:35;100539.13;;;16.66;87.40
68075;BME280;54864;52.002;5.468;2023-09-19T00:03:39;100543.47;;;16.67;87.80
68075;BME280;54864;52.002;5.468;2023-09-19T00:04:45;100546.88;;;16.69;86.86
68075;BME280;54864;52.002;5.468;2023-09-19T00:05:49;100553.91;;;16.70;87.30
68075;BME280;54864;52.002;5.468;2023-09-19T00:06:50;100551.47;;;16.67;87.43
68075;BME280;54864;52.002;5.468;2023-09-19T00:07:56;100551.22;;;16.70;87.60
68075;BME280;54864;52.002;5.468;2023-09-19T00:08:58;100549.91;;;16.75;87.95
68075;BME280;54864;52.002;5.468;2023-09-19T00:10:01;100560.69;;;16.74;87.62
68075;BME280;54864;52.002;5.468;2023-09-19T00:11:02;100556.31;;;16.73;87.70
68075;BME280;54864;52.002;5.468;2023-09-19T00:12:07;100547.19;;;16.64;87.65
68075;BME280;54864;52.002;5.468;2023-09-19T00:13:11;100559.56;;;16.65;87.86
68075;BME280;54864;52.002;5.468;2023-09-19T00:14:15;100550.38;;;16.69;87.95
68075;BME280;54864;52.002;5.468;2023-09-19T00:15:16;100556.94;;;16.76;88.20
68075;BME280;54864;52.002;5.468;2023-09-19T00:16:19;100560.47;;;16.77;87.97
68075;BME280;54864;52.002;5.468;2023-09-19T00:17:20;100550.03;;;16.74;88.12
68075;BME280;54864;52.002;5.468;2023-09-19T00:18:22;100555.13;;;16.77;87.46
68075;BME280;54864;52.002;5.468;2023-09-19T00:19:25;100548.72;;;16.79;87.84
68075;BME280;54864;52.002;5.468;2023-09-19T00:20:26;100541.88;;;16.64;88.05
68075;BME280;54864;52.002;5.468;2023-09-19T00:21:31;100558.63;;;16.77;88.29
68075;BME280;54864;52.002;5.468;2023-09-19T00:22:33;100558.03;;;16.74;88.33
68075;BME280;54864;52.002;5.468;2023-09-19T00:23:34;100557.75;;;16.66;88.47
68075;BME280;54864;52.002;5.468;2023-09-19T00:24:35;100561.88;;;16.70;88.39
68075;BME280;54864;52.002;5.468;2023-09-19T00:25:36;100558.69;;;16.65;87.97
68075;BME280;54864;52.002;5.468;2023-09-19T00:26:38;100561.88;;;16.70;88.61
68075;BME280;54864;52.002;5.468;2023-09-19T00:27:39;100561.16;;;16.68;88.63
68075;BME280;54864;52.002;5.468;2023-09-19T00:28:46;100564.78;;;16.67;88.37
68075;BME280;54864;52.002;5.468;2023-09-19T00:29:47;100563.81;;;16.68;89.35
68075;BME280;54864;52.002;5.468;2023-09-19T00:30:49;100560.81;;;16.72;89.50
68075;BME280;54864;52.002;5.468;2023-09-19T00:31:50;100570.13;;;16.78;89.25
68075;BME280;54864;52.002;5.468;2023-09-19T00:32:52;100562.16;;;16.78;89.18
68075;BME280;54864;52.002;5.468;2023-09-19T00:33:55;100560.84;;;16.60;89.81
68075;BME280;54864;52.002;5.468;2023-09-19T00:34:57;100567.31;;;16.68;89.89
68075;BME280;54864;52.002;5.468;2023-09-19T00:35:58;100563.34;;;16.74;89.94
68075;BME280;54864;52.002;5.468;2023-09-19T00:37:00;100573.03;;;16.75;90.58
68075;BME280;54864;52.002;5.468;2023-09-19T00:38:01;100568.72;;;16.85;90.16
68075;BME280;54864;52.002;5.468;2023-09-19T00:39:04;100569.19;;;16.79;90.13
68075;BME280;54864;52.002;5.468;2023-09-19T00:40:06;100572.09;;;16.87;90.05
68075;BME280;54864;52.002;5.468;2023-09-19T00:41:12;100575.41;;;16.91;89.94
68075;BME280;54864;52.002;5.468;2023-09-19T00:42:18;100564.66;;;16.92;89.40
68075;BME280;54864;52.002;5.468;2023-09-19T00:43:21;100572.41;;;16.95;89.54
68075;BME280;54864;52.002;5.468;2023-09-19T00:44:25;100568.78;;;16.96;89.33
68075;BME280;54864;52.002;5.468;2023-09-19T00:45:27;100572.91;;;17.00;89.33
68075;BME280;54864;52.002;5.468;2023-09-19T00:46:29;100573.41;;;17.05;89.15
68075;BME280;54864;52.002;5.468;2023-09-19T00:47:31;100568.81;;;17.07;89.43
68075;BME280;54864;52.002;5.468;2023-09-19T00:48:38;100572.94;;;17.11;89.29
68075;BME280;54864;52.002;5.468;2023-09-19T00:49:44;100579.81;;;17.03;89.04
68075;BME280;54864;52.002;5.468;2023-09-19T00:50:53;100575.94;;;17.07;88.72
68075;BME280;54864;52.002;5.468;2023-09-19T00:51:56;100586.50;;;17.08;88.24
68075;BME280;54864;52.002;5.468;2023-09-19T00:52:58;100578.00;;;17.03;87.89
68075;BME280;54864;52.002;5.468;2023-09-19T00:53:59;100575.91;;;16.96;88.00
68075;BME280;54864;52.002;5.468;2023-09-19T00:55:00;100582.72;;;17.00;87.56
68075;BME280;54864;52.002;5.468;2023-09-19T00:56:03;100590.34;;;17.04;87.81
68075;BME280;54864;52.002;5.468;2023-09-19T00:57:05;100586.72;;;17.05;87.47
68075;BME280;54864;52.002;5.468;2023-09-19T00:58:06;100585.03;;;17.04;87.54
68075;BME280;54864;52.002;5.468;2023-09-19T00:59:07;100581.50;;;17.04;87.78
68075;BME280;54864;52.002;5.468;2023-09-19T01:00:11;100587.53;;;16.95;88.37
68075;BME280;54864;52.002;5.468;2023-09-19T01:01:16;100586.22;;;16.76;88.20
68075;BME280;54864;52.002;5.468;2023-09-19T01:02:18;100589.00;;;16.75;89.01
68075;BME280;54864;52.002;5.468;2023-09-19T01:03:19;100581.03;;;16.75;89.27
68075;BME280;54864;52.002;5.468;2023-09-19T01:04:20;100591.94;;;16.83;89.60
68075;BME280;54864;52.002;5.468;2023-09-19T01:05:21;100587.13;;;16.88;89.08
68075;BME280;54864;52.002;5.468;2023-09-19T01:06:24;100586.38;;;16.86;89.71
68075;BME280;54864;52.002;5.468;2023-09-19T01:07:28;100583.00;;;16.84;89.35
68075;BME280;54864;52.002;5.468;2023-09-19T01:08:31;100593.19;;;16.90;89.38
68075;BME280;54864;52.002;5.468;2023-09-19T01:09:32;100595.41;;;16.96;89.39
68075;BME280;54864;52.002;5.468;2023-09-19T01:10:35;100583.69;;;16.99;89.62
68075;BME280;54864;52.002;5.468;2023-09-19T01:11:43;100585.84;;;16.94;90.14
68075;BME280;54864;52.002;5.468;2023-09-19T01:12:54;100591.16;;;16.94;89.54
68075;BME280;54864;52.002;5.468;2023-09-19T01:14:15;100595.41;;;16.96;90.33
68075;BME280;54864;52.002;5.468;2023-09-19T01:15:37;100594.22;;;17.00;90.44
68075;BME280;54864;52.002;5.468;2023-09-19T01:16:46;100587.13;;;16.88;90.77
68075;BME280;54864;52.002;5.468;2023-09-19T01:17:57;100589.91;;;16.87;91.52
68075;BME280;54864;52.002;5.468;2023-09-19T01:19:12;100593.19;;;16.90;91.91
68075;BME280;54864;52.002;5.468;2023-09-19T01:20:36;100589.84;;;16.99;91.34
68075;BME280;54864;52.002;5.468;2023-09-19T01:21:47;100589.63;;;17.02;91.18
68075;BME280;54864;52.002;5.468;2023-09-19T01:23:06;100592.41;;;17.01;90.84
68075;BME280;54864;52.002;5.468;2023-09-19T01:24:41;100601.28;;;17.13;90.37
68075;BME280;54864;52.002;5.468;2023-09-19T01:26:07;100589.16;;;17.08;89.94
68075;BME280;54864;52.002;5.468;2023-09-19T01:27:36;100593.41;;;17.11;90.11
68075;BME280;54864;52.002;5.468;2023-09-19T01:28:53;100597.13;;;16.97;89.60
68075;BME280;54864;52.002;5.468;2023-09-19T01:30:09;100594.84;;;16.80;90.29
68075;BME280;54864;52.002;5.468;2023-09-19T01:31:11;100596.81;;;16.89;90.19
68075;BME280;54864;52.002;5.468;2023-09-19T01:32:16;100604.38;;;16.95;89.83
68075;BME280;54864;52.002;5.468;2023-09-19T01:33:17;100597.13;;;16.97;89.75
68075;BME280;54864;52.002;5.468;2023-09-19T01:34:19;100591.78;;;16.97;89.75
68075;BME280;54864;52.002;5.468;2023-09-19T01:35:21;100597.22;;;16.96;89.31
68075;BME280;54864;52.002;5.468;2023-09-19T01:36:22;100598.94;;;16.97;88.90
68075;BME280;54864;52.002;5.468;2023-09-19T01:37:24;100599.47;;;16.89;88.68
68075;BME280;54864;52.002;5.468;2023-09-19T01:38:27;100590.81;;;16.74;87.36
68075;BME280;54864;52.002;5.468;2023-09-19T01:39:28;100599.78;;;16.73;87.43
68075;BME280;54864;52.002;5.468;2023-09-19T01:40:30;100592.41;;;16.77;86.81
68075;BME280;54864;52.002;5.468;2023-09-19T01:41:40;100595.19;;;16.75;87.32
68075;BME280;54864;52.002;5.468;2023-09-19T01:42:50;100598.47;;;16.79;86.69
68075;BME280;54864;52.002;5.468;2023-09-19T01:43:56;100601.25;;;16.77;86.93
68075;BME280;54864;52.002;5.468;2023-09-19T01:45:05;100603.75;;;16.55;86.58
68075;BME280;54864;52.002;5.468;2023-09-19T01:46:14;100600.75;;;16.60;87.23
68075;BME280;54864;52.002;5.468;2023-09-19T01:47:32;100608.13;;;16.56;86.97
68075;BME280;54864;52.002;5.468;2023-09-19T01:48:38;100601.84;;;16.57;87.39
68075;BME280;54864;52.002;5.468;2023-09-19T01:49:52;100604.50;;;16.57;87.11
68075;BME280;54864;52.002;5.468;2023-09-19T01:51:00;100609.44;;;16.51;87.06
68075;BME280;54864;52.002;5.468;2023-09-19T01:52:07;100603.38;;;16.48;86.58
68075;BME280;54864;52.002;5.468;2023-09-19T01:53:15;100601.91;;;16.44;85.75
68075;BME280;54864;52.002;5.468;2023-09-19T01:54:31;100610.84;;;16.43;86.75
68075;BME280;54864;52.002;5.468;2023-09-19T01:55:37;100604.34;;;16.47;86.92
68075;BME280;54864;52.002;5.468;2023-09-19T01:56:46;100609.47;;;16.38;86.80
68075;BME280;54864;52.002;5.468;2023-09-19T01:57:53;100608.84;;;16.22;86.66
68075;BME280;54864;52.002;5.468;2023-09-19T01:59:04;100604.50;;;16.21;86.29
68075;BME280;54864;52.002;5.468;2023-09-19T02:00:10;100613.34;;;16.21;87.00
68075;BME280;54864;52.002;5.468;2023-09-19T02:01:22;100610.66;;;16.21;86.17
68075;BME280;54864;52.002;5.468;2023-09-19T02:02:25;100620.72;;;16.05;86.86
68075;BME280;54864;52.002;5.468;2023-09-19T02:03:27;100618.94;;;15.93;86.14
68075;BME280;54864;52.002;5.468;2023-09-19T02:04:29;100613.91;;;16.01;85.80
68075;BME280;54864;52.002;5.468;2023-09-19T02:05:30;100618.91;;;16.05;87.04
68075;BME280;54864;52.002;5.468;2023-09-19T02:06:33;100618.28;;;16.02;86.86
68075;BME280;54864;52.002;5.468;2023-09-19T02:07:34;100617.72;;;16.09;86.47
68075;BME280;54864;52.002;5.468;2023-09-19T02:08:38;100619.75;;;16.06;86.81
68075;BME280;54864;52.002;5.468;2023-09-19T02:09:39;100624.63;;;16.12;86.52
68075;BME280;54864;52.002;5.468;2023-09-19T02:10:48;100621.44;;;16.07;86.11
68075;BME280;54864;52.002;5.468;2023-09-19T02:11:49;100623.78;;;16.11;86.22
68075;BME280;54864;52.002;5.468;2023-09-19T02:12:51;100623.56;;;16.14;86.42
68075;BME280;54864;52.002;5.468;2023-09-19T02:13:52;100624.75;;;16.10;86.59
68075;BME280;54864;52.002;5.468;2023-09-19T02:14:54;100636.56;;;16.06;86.41
68075;BME280;54864;52.002;5.468;2023-09-19T02:15:57;100630.38;;;16.06;86.20
68075;BME280;54864;52.002;5.468;2023-09-19T02:17:00;100625.63;;;15.98;86.11
68075;BME280;54864;52.002;5.468;2023-09-19T02:18:01;100627.22;;;16.01;86.06
68075;BME280;54864;52.002;5.468;2023-09-19T02:19:07;100621.03;;;16.00;86.23
68075;BME280;54864;52.002;5.468;2023-09-19T02:20:08;100627.66;;;15.95;85.15
68075;BME280;54864;52.002;5.468;2023-09-19T02:21:11;100625.72;;;15.97;85.79
68075;BME280;54864;52.002;5.468;2023-09-19T02:22:12;100622.22;;;15.96;86.17
68075;BME280;54864;52.002;5.468;2023-09-19T02:23:14;100616.91;;;15.96;85.83
68075;BME280;54864;52.002;5.468;2023-09-19T02:24:16;100617.84;;;15.95;85.94
68075;BME280;54864;52.002;5.468;2023-09-19T02:25:17;100619.78;;;15.93;85.64
68075;BME280;54864;52.002;5.468;2023-09-19T02:26:28;100617.13;;;15.93;85.46
68075;BME280;54864;52.002;5.468;2023-09-19T02:27:30;100615.66;;;15.76;84.93
68075;BME280;54864;52.002;5.468;2023-09-19T02:28:31;100619.38;;;15.74;86.01
68075;BME280;54864;52.002;5.468;2023-09-19T02:29:34;100618.84;;;15.81;86.05
68075;BME280;54864;52.002;5.468;2023-09-19T02:30:35;100621.28;;;15.84;85.78
68075;BME280;54864;52.002;5.468;2023-09-19T02:31:37;100624.38;;;15.78;85.16
68075;BME280;54864;52.002;5.468;2023-09-19T02:32:42;100622.03;;;15.74;85.29
68075;BME280;54864;52.002;5.468;2023-09-19T02:33:45;100631.19;;;15.70;85.59
68075;BME280;54864;52.002;5.468;2023-09-19T02:34:46;100626.59;;;15.72;84.97
68075;BME280;54864;52.002;5.468;2023-09-19T02:35:49;100629.69;;;15.78;84.81
68075;BME280;54864;52.002;5.468;2023-09-19T02:36:50;100631.28;;;15.68;84.53
68075;BME280;54864;52.002;5.468;2023-09-19T02:37:54;100635.13;;;15.64;84.69
68075;BME280;54864;52.002;5.468;2023-09-19T02:38:54;100642.25;;;15.64;85.05
68075;BME280;54864;52.002;5.468;2023-09-19T02:39:56;100630.38;;;15.42;82.72
68075;BME280;54864;52.002;5.468;2023-09-19T02:40:57;100625.06;;;15.42;83.09
68075;BME280;54864;52.002;5.468;2023-09-19T02:42:01;100624.84;;;15.45;83.96
68075;BME280;54864;52.002;5.468;2023-09-19T02:43:02;100630.47;;;15.41;83.06
68075;BME280;54864;52.002;5.468;2023-09-19T02:44:04;100628.56;;;15.43;82.84
68075;BME280;54864;52.002;5.468;2023-09-19T02:45:09;100637.50;;;15.42;83.92
68075;BME280;54864;52.002;5.468;2023-09-19T02:46:18;100634.31;;;15.49;83.93
68075;BME280;54864;52.002;5.468;2023-09-19T02:47:18;100634.72;;;15.43;84.00
68075;BME280;54864;52.002;5.468;2023-09-19T02:48:27;100637.59;;;15.40;83.11
68075;BME280;54864;52.002;5.468;2023-09-19T02:49:30;100634.72;;;15.43;82.23
68075;BME280;54864;52.002;5.468;2023-09-19T02:50:31;100635.69;;;15.42;82.19
68075;BME280;54864;52.002;5.468;2023-09-19T02:51:34;100632.16;;;15.29;82.80
68075;BME280;54864;52.002;5.468;2023-09-19T02:52:35;100631.84;;;15.34;82.83
68075;BME280;54864;52.002;5.468;2023-09-19T02:53:36;100639.72;;;15.48;83.01
68075;BME280;54864;52.002;5.468;2023-09-19T02:54:39;100643.66;;;15.42;82.75
68075;BME280;54864;52.002;5.468;2023-09-19T02:55:42;100644.19;;;15.35;83.57
68075;BME280;54864;52.002;5.468;2023-09-19T02:56:43;100646.53;;;15.39;83.40
68075;BME280;54864;52.002;5.468;2023-09-19T02:57:46;100640.25;;;15.40;83.57
68075;BME280;54864;52.002;5.468;2023-09-19T02:58:47;100637.38;;;15.43;83.11
68075;BME280;54864;52.002;5.468;2023-09-19T02:59:49;100641.09;;;15.41;82.53
68075;BME280;54864;52.002;5.468;2023-09-19T03:01:13;100641.00;;;15.42;82.63
68075;BME280;54864;52.002;5.468;2023-09-19T03:02:15;100637.06;;;15.48;82.80
68075;BME280;54864;52.002;5.468;2023-09-19T03:03:16;100636.94;;;15.37;82.05
68075;BME280;54864;52.002;5.468;2023-09-19T03:04:20;100636.19;;;15.22;81.92
68075;BME280;54864;52.002;5.468;2023-09-19T03:05:22;100635.88;;;15.27;82.84
68075;BME280;54864;52.002;5.468;2023-09-19T03:06:24;100642.88;;;15.28;82.82
68075;BME280;54864;52.002;5.468;2023-09-19T03:07:25;100641.72;;;15.32;82.90
68075;BME280;54864;52.002;5.468;2023-09-19T03:08:26;100639.38;;;15.27;82.87
68075;BME280;54864;52.002;5.468;2023-09-19T03:09:27;100640.09;;;15.16;82.08
68075;BME280;54864;52.002;5.468;2023-09-19T03:10:29;100641.59;;;15.20;82.81
68075;BME280;54864;52.002;5.468;2023-09-19T03:11:31;100642.13;;;15.13;83.14
68075;BME280;54864;52.002;5.468;2023-09-19T03:12:33;100631.19;;;15.17;83.23
68075;BME280;54864;52.002;5.468;2023-09-19T03:13:34;100652.13;;;15.22;83.09
68075;BME280;54864;52.002;5.468;2023-09-19T03:14:40;100642.03;;;15.14;83.57
68075;BME280;54864;52.002;5.468;2023-09-19T03:15:41;100633.31;;;15.12;82.42
68075;BME280;54864;52.002;5.468;2023-09-19T03:16:45;100638.81;;;15.09;83.03
68075;BME280;54864;52.002;5.468;2023-09-19T03:17:46;100635.53;;;15.06;81.45
68075;BME280;54864;52.002;5.468;2023-09-19T03:18:48;100633.81;;;15.05;81.90
68075;BME280;54864;52.002;5.468;2023-09-19T03:19:51;100627.56;;;15.06;82.33
68075;BME280;54864;52.002;5.468;2023-09-19T03:20:55;100619.53;;;14.93;82.47
68075;BME280;54864;52.002;5.468;2023-09-19T03:21:57;100625.00;;;14.77;81.37
68075;BME280;54864;52.002;5.468;2023-09-19T03:22:58;100618.28;;;14.72;82.21
68075;BME280;54864;52.002;5.468;2023-09-19T03:24:00;100628.00;;;14.85;82.89
68075;BME280;54864;52.002;5.468;2023-09-19T03:25:01;100623.94;;;14.80;82.84
68075;BME280;54864;52.002;5.468;2023-09-19T03:26:04;100626.75;;;14.64;82.84
68075;BME280;54864;52.002;5.468;2023-09-19T03:27:09;100615.03;;;14.81;83.09
68075;BME280;54864;52.002;5.468;2023-09-19T03:28:10;100625.34;;;14.85;83.29
68075;BME280;54864;52.002;5.468;2023-09-19T03:29:11;100616.63;;;14.83;83.20
68075;BME280;54864;52.002;5.468;2023-09-19T03:30:14;100625.03;;;14.90;82.73
68075;BME280;54864;52.002;5.468;2023-09-19T03:31:15;100637.66;;;14.86;81.98
68075;BME280;54864;52.002;5.468;2023-09-19T03:32:17;100634.59;;;14.93;82.19
68075;BME280;54864;52.002;5.468;2023-09-19T03:33:17;100639.78;;;14.81;80.84
68075;BME280;54864;52.002;5.468;2023-09-19T03:34:18;100641.16;;;14.87;80.59
68075;BME280;54864;52.002;5.468;2023-09-19T03:35:21;100631.19;;;14.90;81.40
68075;BME280;54864;52.002;5.468;2023-09-19T03:36:22;100644.44;;;14.78;79.80
68075;BME280;54864;52.002;5.468;2023-09-19T03:37:24;100642.44;;;14.81;81.09
68075;BME280;54864;52.002;5.468;2023-09-19T03:38:24;100645.09;;;14.81;80.79
68075;BME280;54864;52.002;5.468;2023-09-19T03:39:25;100641.69;;;14.79;81.94
68075;BME280;54864;52.002;5.468;2023-09-19T03:40:27;100637.69;;;14.59;81.46
68075;BME280;54864;52.002;5.468;2023-09-19T03:41:28;100649.03;;;14.62;82.43
68075;BME280;54864;52.002;5.468;2023-09-19T03:42:28;100648.69;;;14.53;80.58
68075;BME280;54864;52.002;5.468;2023-09-19T03:43:31;100638.72;;;14.57;81.76
68075;BME280;54864;52.002;5.468;2023-09-19T03:44:32;100637.69;;;14.59;80.95
68075;BME280;54864;52.002;5.468;2023-09-19T03:45:34;100641.69;;;14.52;80.30
68075;BME280;54864;52.002;5.468;2023-09-19T03:46:37;100642.88;;;14.61;79.65
68075;BME280;54864;52.002;5.468;2023-09-19T03:47:39;100634.06;;;14.61;78.77
68075;BME280;54864;52.002;5.468;2023-09-19T03:48:40;100626.97;;;14.61;79.66
68075;BME280;54864;52.002;5.468;2023-09-19T03:49:43;100621.66;;;14.61;79.41
68075;BME280;54864;52.002;5.468;2023-09-19T03:50:45;100626.34;;;14.70;79.95
68075;BME280;54864;52.002;5.468;2023-09-19T03:51:46;100617.53;;;14.70;78.14
68075;BME280;54864;52.002;5.468;2023-09-19T03:52:47;100618.59;;;14.67;78.69
68075;BME280;54864;52.002;5.468;2023-09-19T03:53:55;100615.75;;;14.70;79.51
68075;BME280;54864;52.002;5.468;2023-09-19T03:54:56;100625.00;;;14.77;79.87
68075;BME280;54864;52.002;5.468;2023-09-19T03:55:58;100622.03;;;14.82;79.35
68075;BME280;54864;52.002;5.468;2023-09-19T03:57:00;100617.69;;;14.81;79.58
68075;BME280;54864;52.002;5.468;2023-09-19T03:58:03;100620.78;;;14.87;80.84
68075;BME280;54864;52.002;5.468;2023-09-19T03:59:04;100622.38;;;14.90;79.60
68075;BME280;54864;52.002;5.468;2023-09-19T04:00:07;100626.19;;;14.86;79.82
68075;BME280;54864;52.002;5.468;2023-09-19T04:01:11;100624.19;;;14.89;79.22
68075;BME280;54864;52.002;5.468;2023-09-19T04:02:15;100626.25;;;14.72;79.10
68075;BME280;54864;52.002;5.468;2023-09-19T04:03:22;100621.81;;;14.72;78.43
68075;BME280;54864;52.002;5.468;2023-09-19T04:04:23;100630.81;;;14.70;77.42
68075;BME280;54864;52.002;5.468;2023-09-19T04:05:25;100620.69;;;14.62;78.48
68075;BME280;54864;52.002;5.468;2023-09-19T04:06:27;100626.47;;;14.69;78.80
68075;BME280;54864;52.002;5.468;2023-09-19T04:07:30;100634.88;;;14.75;77.29
68075;BME280;54864;52.002;5.468;2023-09-19T04:08:30;100634.66;;;14.78;76.29
68075;BME280;54864;52.002;5.468;2023-09-19T04:09:32;100644.97;;;14.83;78.51
68075;BME280;54864;52.002;5.468;2023-09-19T04:10:33;100638.38;;;14.76;78.88
68075;BME280;54864;52.002;5.468;2023-09-19T04:11:34;100644.72;;;14.73;77.91
68075;BME280;54864;52.002;5.468;2023-09-19T04:12:35;100643.88;;;14.73;77.76
68075;BME280;54864;52.002;5.468;2023-09-19T04:13:37;100649.09;;;14.74;76.51
68075;BME280;54864;52.002;5.468;2023-09-19T04:14:38;100652.34;;;14.65;78.62
68075;BME280;54864;52.002;5.468;2023-09-19T04:15:40;100653.00;;;14.69;77.83
68075;BME280;54864;52.002;5.468;2023-09-19T04:16:41;100645.28;;;14.78;78.99
68075;BME280;54864;52.002;5.468;2023-09-19T04:17:43;100655.16;;;14.76;79.40
68075;BME280;54864;52.002;5.468;2023-09-19T04:18:43;100662.97;;;14.65;78.25
68075;BME280;54864;52.002;5.468;2023-09-19T04:19:45;100662.50;;;14.58;79.39
68075;BME280;54864;52.002;5.468;2023-09-19T04:20:48;100658.50;;;14.66;79.73
68075;BME280;54864;52.002;5.468;2023-09-19T04:21:51;100662.66;;;14.70;78.79
68075;BME280;54864;52.002;5.468;2023-09-19T04:22:52;100666.06;;;14.72;78.64
68075;BME280;54864;52.002;5.468;2023-09-19T04:23:54;100669.91;;;14.53;78.03
68075;BME280;54864;52.002;5.468;2023-09-19T04:24:55;100675.81;;;14.44;78.66
68075;BME280;54864;52.002;5.468;2023-09-19T04:25:57;100675.66;;;14.60;78.13
68075;BME280;54864;52.002;5.468;2023-09-19T04:27:00;100670.47;;;14.58;79.39
68075;BME280;54864;52.002;5.468;2023-09-19T04:28:06;100676.63;;;14.59;76.82
68075;BME280;54864;52.002;5.468;2023-09-19T04:29:07;100688.69;;;14.50;77.36
68075;BME280;54864;52.002;5.468;2023-09-19T04:30:11;100688.38;;;14.41;77.56
68075;BME280;54864;52.002;5.468;2023-09-19T04:31:13;100694.84;;;14.51;78.37
68075;BME280;54864;52.002;5.468;2023-09-19T04:32:14;100689.88;;;14.59;79.20
68075;BME280;54864;52.002;5.468;2023-09-19T04:33:16;100687.53;;;14.54;79.00
68075;BME280;54864;52.002;5.468;2023-09-19T04:34:18;100684.13;;;14.52;78.93
68075;BME280;54864;52.002;5.468;2023-09-19T04:35:19;100687.34;;;14.57;78.90
68075;BME280;54864;52.002;5.468;2023-09-19T04:36:21;100697.09;;;14.57;79.55
68075;BME280;54864;52.002;5.468;2023-09-19T04:37:24;100691.44;;;14.49;78.84
68075;BME280;54864;52.002;5.468;2023-09-19T04:38:26;100681.88;;;14.46;79.08
68075;BME280;54864;52.002;5.468;2023-09-19T04:39:29;100697.94;;;14.57;79.36
68075;BME280;54864;52.002;5.468;2023-09-19T04:40:31;100707.41;;;14.62;79.77
68075;BME280;54864;52.002;5.468;2023-09-19T04:41:34;100699.09;;;14.53;79.35
68075;BME280;54864;52.002;5.468;2023-09-19T04:42:37;100699.00;;;14.55;79.25
68075;BME280;54864;52.002;5.468;2023-09-19T04:43:38;100702.09;;;14.62;78.52
68075;BME280;54864;52.002;5.468;2023-09-19T04:44:39;100701.63;;;14.69;78.09
68075;BME280;54864;52.002;5.468;2023-09-19T04:45:40;100707.28;;;14.77;79.02
68075;BME280;54864;52.002;5.468;2023-09-19T04:46:42;100703.56;;;14.80;78.15
68075;BME280;54864;52.002;5.468;2023-09-19T04:47:43;100710.47;;;14.82;77.54
68075;BME280;54864;52.002;5.468;2023-09-19T04:48:44;100713.72;;;14.73;76.28
68075;BME280;54864;52.002;5.468;2023-09-19T04:49:45;100717.63;;;14.68;76.96
68075;BME280;54864;52.002;5.468;2023-09-19T04:50:48;100712.44;;;14.66;75.71
68075;BME280;54864;52.002;5.468;2023-09-19T04:51:49;100708.44;;;14.73;77.53
68075;BME280;54864;52.002;5.468;2023-09-19T04:52:52;100705.56;;;14.76;77.31
68075;BME280;54864;52.002;5.468;2023-09-19T04:53:54;100713.34;;;14.79;78.03
68075;BME280;54864;52.002;5.468;2023-09-19T04:54:55;100706.44;;;14.77;77.40
68075;BME280;54864;52.002;5.468;2023-09-19T04:55:56;100701.66;;;14.82;77.73
68075;BME280;54864;52.002;5.468;2023-09-19T04:56:58;100701.97;;;14.77;78.43
68075;BME280;54864;52.002;5.468;2023-09-19T04:57:59;100702.16;;;14.74;77.58
68075;BME280;54864;52.002;5.468;2023-09-19T04:59:02;100693.81;;;14.80;77.22
68075;BME280;54864;52.002;5.468;2023-09-19T05:00:05;100706.44;;;14.77;78.02
68075;BME280;54864;52.002;5.468;2023-09-19T05:01:12;100704.22;;;14.83;76.79
68075;BME280;54864;52.002;5.468;2023-09-19T05:02:15;100696.56;;;14.79;77.26
68075;BME280;54864;52.002;5.468;2023-09-19T05:03:16;100702.41;;;14.84;77.22
68075;BME280;54864;52.002;5.468;2023-09-19T05:04:20;100706.22;;;14.80;76.90
68075;BME280;54864;52.002;5.468;2023-09-19T05:05:21;100696.56;;;14.79;76.90
68075;BME280;54864;52.002;5.468;2023-09-19T05:06:23;100699.66;;;14.85;76.98
68075;BME280;54864;52.002;5.468;2023-09-19T05:07:23;100689.34;;;14.81;77.51
68075;BME280;54864;52.002;5.468;2023-09-19T05:08:27;100701.13;;;14.77;77.56
68075;BME280;54864;52.002;5.468;2023-09-19T05:09:31;100701.41;;;14.72;76.69
68075;BME280;54864;52.002;5.468;2023-09-19T05:10:34;100701.31;;;14.74;77.51
68075;BME280;54864;52.002;5.468;2023-09-19T05:11:38;100703.31;;;14.70;77.25
68075;BME280;54864;52.002;5.468;2023-09-19T05:12:41;100699.91;;;14.68;77.85
68075;BME280;54864;52.002;5.468;2023-09-19T05:13:41;100708.38;;;14.61;78.54
68075;BME280;54864;52.002;5.468;2023-09-19T05:14:43;100713.22;;;14.54;78.24
68075;BME280;54864;52.002;5.468;2023-09-19T05:15:44;100699.75;;;14.57;78.66
68075;BME280;54864;52.002;5.468;2023-09-19T05:16:46;100703.16;;;14.59;78.99
68075;BME280;54864;52.002;5.468;2023-09-19T05:17:48;100706.75;;;14.58;78.46
68075;BME280;54864;52.002;5.468;2023-09-19T05:18:50;100709.31;;;14.59;79.23
68075;BME280;54864;52.002;5.468;2023-09-19T05:19:54;100704.09;;;14.58;79.23
68075;BME280;54864;52.002;5.468;2023-09-19T05:20:55;100708.72;;;14.69;79.47
68075;BME280;54864;52.002;5.468;2023-09-19T05:21:56;100708.53;;;14.72;79.44
68075;BME280;54864;52.002;5.468;2023-09-19T05:22:59;100700.69;;;14.56;78.27
68075;BME280;54864;52.002;5.468;2023-09-19T05:24:04;100696.59;;;14.65;78.88
68075;BME280;54864;52.002;5.468;2023-09-19T05:25:07;100704.75;;;14.62;79.40
68075;BME280;54864;52.002;5.468;2023-09-19T05:26:08;100705.91;;;14.57;79.22
68075;BME280;54864;52.002;5.468;2023-09-19T05:27:13;100706.91;;;14.69;80.04
68075;BME280;54864;52.002;5.468;2023-09-19T05:28:16;100710.22;;;14.73;79.29
68075;BME280;54864;52.002;5.468;2023-09-19T05:29:18;100714.91;;;14.55;80.16
68075;BME280;54864;52.002;5.468;2023-09-19T05:30:19;100712.72;;;14.62;79.73
68075;BME280;54864;52.002;5.468;2023-09-19T05:31:20;100705.97;;;14.70;79.04
68075;BME280;54864;52.002;5.468;2023-09-19T05:32:23;100700.84;;;14.67;79.40